createdAt,value
2019-05-25T00:00:17.958Z,69.90
2019-05-25T00:00:49.213Z,69.90
2019-05-25T00:01:20.392Z,69.80
2019-05-25T00:01:51.642Z,69.80
2019-05-25T00:02:22.826Z,69.80
2019-05-25T00:02:54.015Z,69.70
2019-05-25T00:03:25.265Z,69.80
2019-05-25T00:03:56.693Z,69.70
2019-05-25T00:04:27.869Z,69.80
2019-05-25T00:04:59.358Z,69.80
2019-05-25T00:05:30.547Z,69.80
2019-05-25T00:06:01.982Z,69.80
2019-05-25T00:06:33.424Z,70.60
2019-05-25T00:07:04.868Z,69.80
2019-05-25T00:07:36.406Z,69.80
2019-05-25T00:08:07.851Z,69.80
2019-05-25T00:08:39.018Z,69.80
2019-05-25T00:09:10.499Z,69.80
2019-05-25T00:09:41.661Z,69.80
2019-05-25T00:10:13.101Z,69.80
2019-05-25T00:10:44.275Z,69.90
2019-05-25T00:11:15.451Z,69.90
2019-05-25T00:11:46.636Z,70.70
2019-05-25T00:12:17.807Z,69.80
2019-05-25T00:12:49.280Z,69.90
2019-05-25T00:13:20.457Z,69.80
2019-05-25T00:13:51.636Z,69.80
2019-05-25T00:14:23.080Z,69.80
2019-05-25T00:14:54.258Z,69.80
2019-05-25T00:15:25.436Z,69.80
2019-05-25T00:15:56.622Z,69.80
2019-05-25T00:16:27.821Z,69.80
2019-05-25T00:16:59.257Z,69.70
2019-05-25T00:17:30.436Z,69.80
2019-05-25T00:18:01.684Z,69.70
2019-05-25T00:18:32.893Z,69.70
2019-05-25T00:19:04.094Z,69.70
2019-05-25T00:19:35.322Z,69.70
2019-05-25T00:20:06.844Z,69.70
2019-05-25T00:20:38.285Z,69.80
2019-05-25T00:21:09.485Z,69.80
2019-05-25T00:21:40.722Z,69.80
2019-05-25T00:22:11.916Z,69.80
2019-05-25T00:22:43.098Z,69.70
2019-05-25T00:23:14.277Z,69.70
2019-05-25T00:23:45.460Z,69.80
2019-05-25T00:24:16.651Z,69.70
2019-05-25T00:24:47.818Z,69.70
2019-05-25T00:25:19.009Z,69.70
2019-05-25T00:25:50.175Z,69.70
2019-05-25T00:26:21.383Z,69.70
2019-05-25T00:26:52.563Z,70.40
2019-05-25T00:27:23.742Z,69.50
2019-05-25T00:27:54.908Z,69.50
2019-05-25T00:28:26.107Z,69.50
2019-05-25T00:28:57.277Z,69.50
2019-05-25T00:29:28.446Z,69.60
2019-05-25T00:29:59.635Z,69.70
2019-05-25T00:30:30.815Z,69.60
2019-05-25T00:31:02.011Z,69.70
2019-05-25T00:31:33.194Z,69.70
2019-05-25T00:32:04.396Z,69.60
2019-05-25T00:32:35.572Z,69.60
2019-05-25T00:33:06.764Z,69.70
2019-05-25T00:33:38.013Z,69.50
2019-05-25T00:34:09.193Z,69.50
2019-05-25T00:34:40.443Z,69.50
2019-05-25T00:35:11.629Z,69.50
2019-05-25T00:35:42.796Z,70.40
2019-05-25T00:36:13.987Z,69.70
2019-05-25T00:36:45.169Z,69.70
2019-05-25T00:37:16.359Z,69.70
2019-05-25T00:37:47.632Z,69.70
2019-05-25T00:38:19.086Z,69.60
2019-05-25T00:38:50.269Z,70.40
2019-05-25T00:39:21.439Z,69.70
2019-05-25T00:39:52.610Z,69.70
2019-05-25T00:40:23.785Z,69.70
2019-05-25T00:40:54.968Z,69.70
2019-05-25T00:41:26.157Z,69.70
2019-05-25T00:41:57.605Z,69.80
2019-05-25T00:42:28.785Z,69.80
2019-05-25T00:42:59.981Z,69.70
2019-05-25T00:43:31.155Z,69.70
2019-05-25T00:44:02.379Z,69.70
2019-05-25T00:44:33.854Z,69.70
2019-05-25T00:45:05.025Z,69.70
2019-05-25T00:45:36.230Z,69.80
2019-05-25T00:46:07.431Z,69.70
2019-05-25T00:46:38.599Z,69.70
2019-05-25T00:47:09.774Z,69.60
2019-05-25T00:47:40.967Z,69.70
2019-05-25T00:48:12.147Z,69.60
2019-05-25T00:48:43.596Z,69.60
2019-05-25T00:49:14.853Z,69.50
2019-05-25T00:49:46.107Z,69.50
2019-05-25T00:50:17.307Z,69.60
2019-05-25T00:50:48.478Z,69.60
2019-05-25T00:51:19.653Z,69.60
2019-05-25T00:51:51.091Z,69.60
2019-05-25T00:52:22.324Z,69.70
2019-05-25T00:52:53.522Z,69.70
2019-05-25T00:53:24.964Z,69.60
2019-05-25T00:53:56.465Z,69.50
2019-05-25T00:54:28.434Z,69.60
2019-05-25T00:54:59.698Z,69.60
2019-05-25T00:55:30.880Z,69.60
2019-05-25T00:56:02.052Z,69.50
2019-05-25T00:56:33.229Z,69.60
2019-05-25T00:57:04.398Z,69.50
2019-05-25T00:57:35.589Z,69.60
2019-05-25T00:58:07.023Z,69.50
2019-05-25T00:58:38.506Z,69.70
2019-05-25T00:59:09.669Z,69.60
2019-05-25T00:59:41.099Z,69.60
2019-05-25T01:00:12.281Z,69.50
2019-05-25T01:00:43.453Z,69.50
2019-05-25T01:01:14.636Z,69.50
2019-05-25T01:01:45.806Z,69.50
2019-05-25T01:02:16.989Z,69.60
2019-05-25T01:02:48.276Z,70.20
2019-05-25T01:03:19.733Z,69.50
2019-05-25T01:03:50.922Z,69.50
2019-05-25T01:04:22.390Z,69.50
2019-05-25T01:04:53.838Z,69.50
2019-05-25T01:05:25.053Z,69.50
2019-05-25T01:05:56.272Z,69.50
2019-05-25T01:06:27.454Z,70.30
2019-05-25T01:06:58.882Z,69.50
2019-05-25T01:07:30.057Z,69.50
2019-05-25T01:08:01.237Z,69.40
2019-05-25T01:08:32.695Z,69.40
2019-05-25T01:09:03.864Z,69.40
2019-05-25T01:09:35.056Z,69.40
2019-05-25T01:10:06.476Z,69.40
2019-05-25T01:10:37.667Z,69.40
2019-05-25T01:11:08.839Z,69.40
2019-05-25T01:11:40.036Z,69.40
2019-05-25T01:12:11.245Z,69.40
2019-05-25T01:12:42.477Z,69.40
2019-05-25T01:13:13.653Z,69.40
2019-05-25T01:13:44.847Z,69.40
2019-05-25T01:14:16.026Z,69.40
2019-05-25T01:14:47.204Z,69.40
2019-05-25T01:15:18.379Z,69.40
2019-05-25T01:15:49.840Z,69.40
2019-05-25T01:16:21.019Z,69.50
2019-05-25T01:16:52.233Z,69.50
2019-05-25T01:17:23.459Z,69.50
2019-05-25T01:17:54.652Z,69.50
2019-05-25T01:18:25.830Z,69.60
2019-05-25T01:18:57.025Z,69.60
2019-05-25T01:19:28.525Z,69.50
2019-05-25T01:19:59.697Z,69.50
2019-05-25T01:20:31.160Z,69.60
2019-05-25T01:21:02.337Z,69.60
2019-05-25T01:21:33.517Z,69.70
2019-05-25T01:22:04.709Z,69.70
2019-05-25T01:22:35.958Z,69.70
2019-05-25T01:23:07.171Z,69.60
2019-05-25T01:23:38.662Z,69.50
2019-05-25T01:24:09.838Z,69.50
2019-05-25T01:24:44.207Z,69.50
2019-05-25T01:25:13.950Z,69.50
2019-05-25T01:25:45.126Z,69.50
2019-05-25T01:26:16.607Z,69.50
2019-05-25T01:26:47.840Z,69.50
2019-05-25T01:27:19.054Z,69.50
2019-05-25T01:27:50.469Z,69.50
2019-05-25T01:28:21.670Z,69.60
2019-05-25T01:28:52.843Z,69.60
2019-05-25T01:29:24.019Z,69.50
2019-05-25T01:29:55.183Z,69.50
2019-05-25T01:30:26.355Z,69.50
2019-05-25T01:30:57.528Z,69.50
2019-05-25T01:31:28.972Z,69.50
2019-05-25T01:32:00.154Z,69.50
2019-05-25T01:32:31.353Z,69.50
2019-05-25T01:33:02.526Z,69.40
2019-05-25T01:33:33.707Z,69.40
2019-05-25T01:34:04.897Z,70.20
2019-05-25T01:34:36.070Z,69.40
2019-05-25T01:35:07.248Z,69.50
2019-05-25T01:35:38.426Z,69.50
2019-05-25T01:36:09.901Z,69.50
2019-05-25T01:36:41.078Z,69.50
2019-05-25T01:37:12.267Z,69.50
2019-05-25T01:37:43.441Z,69.40
2019-05-25T01:38:14.640Z,69.40
2019-05-25T01:38:45.808Z,69.40
2019-05-25T01:39:16.984Z,69.40
2019-05-25T01:39:48.153Z,69.40
2019-05-25T01:40:19.593Z,69.40
2019-05-25T01:40:50.774Z,69.40
2019-05-25T01:41:21.946Z,69.40
2019-05-25T01:41:53.121Z,69.40
2019-05-25T01:42:24.565Z,69.40
2019-05-25T01:42:55.745Z,69.40
2019-05-25T01:43:26.921Z,69.40
2019-05-25T01:43:58.094Z,69.40
2019-05-25T01:44:29.290Z,69.30
2019-05-25T01:45:00.477Z,69.30
2019-05-25T01:45:31.637Z,69.40
2019-05-25T01:46:02.831Z,69.40
2019-05-25T01:46:34.025Z,69.40
2019-05-25T01:47:05.252Z,69.40
2019-05-25T01:47:36.687Z,69.40
2019-05-25T01:48:07.872Z,70.20
2019-05-25T01:48:39.107Z,69.40
2019-05-25T01:49:10.294Z,69.30
2019-05-25T01:49:41.494Z,69.30
2019-05-25T01:50:12.663Z,69.20
2019-05-25T01:50:44.163Z,69.30
2019-05-25T01:51:15.356Z,69.20
2019-05-25T01:51:46.523Z,69.20
2019-05-25T01:52:17.703Z,69.20
2019-05-25T01:52:48.883Z,69.20
2019-05-25T01:53:20.122Z,69.20
2019-05-25T01:53:51.357Z,69.20
2019-05-25T01:54:22.531Z,69.10
2019-05-25T01:54:59.740Z,69.20
2019-05-25T01:55:26.619Z,69.20
2019-05-25T01:55:57.808Z,69.20
2019-05-25T01:56:29.018Z,69.20
2019-05-25T01:57:00.188Z,69.40
2019-05-25T01:57:31.365Z,69.40
2019-05-25T01:58:02.841Z,69.30
2019-05-25T01:58:34.025Z,69.30
2019-05-25T01:59:05.204Z,69.30
2019-05-25T01:59:36.380Z,69.40
2019-05-25T02:00:07.573Z,69.50
2019-05-25T02:00:38.742Z,69.40
2019-05-25T02:01:09.921Z,69.40
2019-05-25T02:01:41.148Z,69.30
2019-05-25T02:02:12.379Z,69.20
2019-05-25T02:02:43.577Z,70.10
2019-05-25T02:03:14.749Z,69.30
2019-05-25T02:03:45.920Z,69.30
2019-05-25T02:04:17.138Z,69.30
2019-05-25T02:04:48.568Z,69.20
2019-05-25T02:05:19.742Z,69.20
2019-05-25T02:05:50.926Z,69.30
2019-05-25T02:06:22.130Z,69.30
2019-05-25T02:06:53.619Z,69.30
2019-05-25T02:07:24.810Z,69.30
2019-05-25T02:07:55.990Z,69.20
2019-05-25T02:08:27.220Z,70.00
2019-05-25T02:08:58.441Z,69.20
2019-05-25T02:09:29.618Z,69.20
2019-05-25T02:10:00.792Z,69.20
2019-05-25T02:10:31.981Z,69.20
2019-05-25T02:11:03.164Z,69.10
2019-05-25T02:11:34.407Z,69.10
2019-05-25T02:12:05.847Z,69.10
2019-05-25T02:12:37.011Z,69.10
2019-05-25T02:13:08.189Z,69.00
2019-05-25T02:13:39.620Z,69.00
2019-05-25T02:14:10.881Z,69.00
2019-05-25T02:14:42.139Z,69.00
2019-05-25T02:15:13.328Z,69.00
2019-05-25T02:15:44.569Z,69.00
2019-05-25T02:16:15.747Z,69.80
2019-05-25T02:16:46.923Z,69.10
2019-05-25T02:17:18.094Z,69.00
2019-05-25T02:17:49.598Z,69.00
2019-05-25T02:18:20.781Z,69.00
2019-05-25T02:18:51.955Z,69.00
2019-05-25T02:19:23.156Z,69.10
2019-05-25T02:19:54.342Z,69.00
2019-05-25T02:20:25.516Z,69.00
2019-05-25T02:20:56.730Z,69.00
2019-05-25T02:21:27.911Z,69.00
2019-05-25T02:21:59.087Z,69.00
2019-05-25T02:22:30.619Z,69.00
2019-05-25T02:23:01.793Z,69.00
2019-05-25T02:23:32.971Z,69.00
2019-05-25T02:24:04.145Z,69.00
2019-05-25T02:24:35.325Z,69.00
2019-05-25T02:25:16.940Z,69.00
2019-05-25T02:25:39.672Z,69.00
2019-05-25T02:26:10.850Z,69.00
2019-05-25T02:26:42.046Z,69.00
2019-05-25T02:27:13.235Z,68.90
2019-05-25T02:27:44.423Z,69.00
2019-05-25T02:28:15.870Z,69.00
2019-05-25T02:28:47.338Z,68.90
2019-05-25T02:29:18.591Z,69.70
2019-05-25T02:29:50.022Z,69.00
2019-05-25T02:30:21.286Z,68.90
2019-05-25T02:30:52.473Z,68.80
2019-05-25T02:31:23.643Z,68.90
2019-05-25T02:31:54.819Z,68.90
2019-05-25T02:32:26.252Z,68.90
2019-05-25T02:32:57.495Z,68.80
2019-05-25T02:33:28.663Z,68.80
2019-05-25T02:33:59.853Z,68.80
2019-05-25T02:34:31.084Z,68.80
2019-05-25T02:35:02.277Z,68.80
2019-05-25T02:35:33.729Z,68.80
2019-05-25T02:36:04.964Z,68.80
2019-05-25T02:36:36.167Z,68.80
2019-05-25T02:37:07.344Z,68.80
2019-05-25T02:37:38.556Z,68.80
2019-05-25T02:38:09.756Z,68.80
2019-05-25T02:38:40.932Z,68.80
2019-05-25T02:39:12.114Z,68.70
2019-05-25T02:39:43.297Z,68.70
2019-05-25T02:40:14.737Z,68.70
2019-05-25T02:40:45.914Z,68.70
2019-05-25T02:41:17.085Z,68.80
2019-05-25T02:41:48.262Z,68.70
2019-05-25T02:42:19.686Z,68.80
2019-05-25T02:42:50.862Z,68.80
2019-05-25T02:43:22.069Z,68.80
2019-05-25T02:43:53.259Z,68.80
2019-05-25T02:44:24.490Z,68.80
2019-05-25T02:44:55.690Z,68.80
2019-05-25T02:45:26.863Z,68.70
2019-05-25T02:45:58.042Z,68.70
2019-05-25T02:46:29.213Z,68.70
2019-05-25T02:47:00.406Z,68.70
2019-05-25T02:47:31.583Z,68.70
2019-05-25T02:48:02.770Z,68.70
2019-05-25T02:48:33.970Z,68.70
2019-05-25T02:49:05.146Z,68.80
2019-05-25T02:49:36.318Z,68.80
2019-05-25T02:50:07.527Z,68.90
2019-05-25T02:50:38.707Z,68.80
2019-05-25T02:51:09.883Z,68.80
2019-05-25T02:51:41.051Z,68.80
2019-05-25T02:52:12.228Z,68.80
2019-05-25T02:52:43.400Z,68.80
2019-05-25T02:53:14.596Z,68.80
2019-05-25T02:53:45.790Z,68.70
2019-05-25T02:54:17.003Z,68.80
2019-05-25T02:54:48.217Z,68.70
2019-05-25T02:55:33.162Z,68.70
2019-05-25T02:55:52.292Z,68.70
2019-05-25T02:56:23.736Z,68.70
2019-05-25T02:56:54.923Z,68.80
2019-05-25T02:57:26.120Z,68.80
2019-05-25T02:57:57.304Z,68.80
2019-05-25T02:58:28.507Z,68.80
2019-05-25T02:58:59.689Z,68.80
2019-05-25T02:59:30.874Z,68.80
2019-05-25T03:00:02.116Z,68.80
2019-05-25T03:00:33.567Z,68.70
2019-05-25T03:01:05.068Z,68.70
2019-05-25T03:01:36.261Z,68.70
2019-05-25T03:02:07.497Z,68.70
2019-05-25T03:02:38.976Z,68.70
2019-05-25T03:03:10.206Z,68.70
2019-05-25T03:03:41.402Z,68.70
2019-05-25T03:04:12.606Z,68.70
2019-05-25T03:04:44.069Z,68.70
2019-05-25T03:05:15.330Z,68.70
2019-05-25T03:05:46.586Z,68.70
2019-05-25T03:06:17.760Z,68.70
2019-05-25T03:06:49.186Z,68.70
2019-05-25T03:07:20.375Z,68.80
2019-05-25T03:07:51.563Z,68.70
2019-05-25T03:08:22.796Z,68.70
2019-05-25T03:08:54.007Z,68.70
2019-05-25T03:09:25.481Z,68.70
2019-05-25T03:09:56.687Z,68.70
2019-05-25T03:10:28.140Z,68.70
2019-05-25T03:10:59.574Z,68.70
2019-05-25T03:11:31.017Z,68.70
2019-05-25T03:12:02.214Z,68.60
2019-05-25T03:12:33.394Z,68.50
2019-05-25T03:13:04.599Z,68.50
2019-05-25T03:13:35.824Z,68.50
2019-05-25T03:14:07.004Z,68.40
2019-05-25T03:14:38.325Z,68.60
2019-05-25T03:15:09.784Z,68.50
2019-05-25T03:15:41.009Z,68.50
2019-05-25T03:16:12.235Z,68.60
2019-05-25T03:16:43.714Z,68.60
2019-05-25T03:17:14.961Z,68.60
2019-05-25T03:17:46.184Z,68.50
2019-05-25T03:18:17.386Z,68.50
2019-05-25T03:18:48.563Z,68.50
2019-05-25T03:19:19.757Z,68.50
2019-05-25T03:19:51.254Z,68.50
2019-05-25T03:20:22.733Z,68.50
2019-05-25T03:20:53.910Z,68.40
2019-05-25T03:21:25.095Z,68.40
2019-05-25T03:21:56.598Z,68.40
2019-05-25T03:22:27.796Z,68.40
2019-05-25T03:22:58.967Z,68.30
2019-05-25T03:23:30.141Z,68.30
2019-05-25T03:24:01.318Z,68.30
2019-05-25T03:24:32.536Z,68.20
2019-05-25T03:25:03.705Z,68.20
2019-05-25T03:25:48.474Z,68.30
2019-05-25T03:26:07.813Z,68.30
2019-05-25T03:26:38.989Z,68.30
2019-05-25T03:27:10.426Z,68.30
2019-05-25T03:27:41.610Z,68.40
2019-05-25T03:28:12.794Z,68.30
2019-05-25T03:28:43.970Z,68.30
2019-05-25T03:29:15.160Z,68.40
2019-05-25T03:29:46.334Z,68.40
2019-05-25T03:30:17.552Z,68.40
2019-05-25T03:30:48.758Z,68.40
2019-05-25T03:31:19.947Z,68.40
2019-05-25T03:31:51.112Z,68.40
2019-05-25T03:32:22.288Z,68.40
2019-05-25T03:32:53.550Z,68.40
2019-05-25T03:33:24.746Z,68.40
2019-05-25T03:33:55.977Z,68.40
2019-05-25T03:34:27.157Z,68.40
2019-05-25T03:34:58.332Z,68.30
2019-05-25T03:35:29.827Z,68.30
2019-05-25T03:36:01.098Z,68.30
2019-05-25T03:36:32.325Z,68.20
2019-05-25T03:37:03.530Z,68.20
2019-05-25T03:37:34.721Z,68.20
2019-05-25T03:38:06.152Z,68.20
2019-05-25T03:38:37.333Z,68.20
2019-05-25T03:39:08.512Z,68.20
2019-05-25T03:39:39.687Z,68.20
2019-05-25T03:40:10.866Z,68.20
2019-05-25T03:40:42.056Z,68.20
2019-05-25T03:41:13.234Z,68.20
2019-05-25T03:41:44.419Z,68.30
2019-05-25T03:42:15.952Z,68.20
2019-05-25T03:42:47.454Z,68.20
2019-05-25T03:43:18.659Z,68.20
2019-05-25T03:43:49.882Z,68.20
2019-05-25T03:44:21.066Z,68.30
2019-05-25T03:44:52.246Z,68.30
2019-05-25T03:45:23.678Z,68.20
2019-05-25T03:45:54.853Z,68.20
2019-05-25T03:46:26.307Z,68.20
2019-05-25T03:46:57.482Z,68.20
2019-05-25T03:47:28.658Z,68.20
2019-05-25T03:47:59.843Z,68.20
2019-05-25T03:48:31.272Z,68.20
2019-05-25T03:49:02.462Z,68.20
2019-05-25T03:49:33.703Z,68.20
2019-05-25T03:50:04.942Z,68.20
2019-05-25T03:50:36.107Z,68.20
2019-05-25T03:51:07.284Z,68.10
2019-05-25T03:51:38.495Z,68.10
2019-05-25T03:52:09.932Z,68.10
2019-05-25T03:52:41.116Z,68.10
2019-05-25T03:53:12.284Z,68.10
2019-05-25T03:53:43.741Z,68.10
2019-05-25T03:54:14.907Z,68.10
2019-05-25T03:54:46.084Z,68.10
2019-05-25T03:55:17.263Z,68.10
2019-05-25T03:56:04.492Z,68.10
2019-05-25T03:56:21.604Z,68.10
2019-05-25T03:56:52.800Z,68.10
2019-05-25T03:57:23.966Z,68.10
2019-05-25T03:57:55.166Z,68.00
2019-05-25T03:58:26.594Z,68.10
2019-05-25T03:58:57.777Z,68.10
2019-05-25T03:59:28.981Z,68.10
2019-05-25T04:00:00.156Z,68.10
2019-05-25T04:00:31.429Z,68.10
2019-05-25T04:01:02.693Z,68.10
2019-05-25T04:01:33.912Z,68.00
2019-05-25T04:02:05.093Z,68.10
2019-05-25T04:02:36.283Z,68.00
2019-05-25T04:03:07.460Z,68.00
2019-05-25T04:03:38.919Z,68.00
2019-05-25T04:04:10.093Z,68.10
2019-05-25T04:04:41.583Z,68.80
2019-05-25T04:05:12.774Z,68.00
2019-05-25T04:05:43.951Z,68.00
2019-05-25T04:06:15.125Z,68.00
2019-05-25T04:06:46.342Z,68.00
2019-05-25T04:07:17.533Z,67.90
2019-05-25T04:07:48.774Z,68.00
2019-05-25T04:08:20.230Z,67.90
2019-05-25T04:08:51.414Z,67.90
2019-05-25T04:09:22.607Z,67.90
2019-05-25T04:09:53.770Z,67.90
2019-05-25T04:10:24.950Z,67.90
2019-05-25T04:10:56.130Z,67.90
2019-05-25T04:11:27.303Z,67.90
2019-05-25T04:11:58.479Z,67.90
2019-05-25T04:12:29.667Z,68.00
2019-05-25T04:13:51.231Z,67.90
2019-05-25T04:14:22.480Z,67.90
2019-05-25T04:14:53.680Z,67.90
2019-05-25T04:15:24.849Z,67.90
2019-05-25T04:15:56.028Z,67.90
2019-05-25T04:16:27.212Z,67.90
2019-05-25T04:16:58.413Z,68.00
2019-05-25T04:17:29.937Z,67.90
2019-05-25T04:18:01.403Z,67.80
2019-05-25T04:18:32.593Z,67.90
2019-05-25T04:19:03.802Z,67.80
2019-05-25T04:19:34.976Z,67.90
2019-05-25T04:20:06.158Z,67.90
2019-05-25T04:20:37.330Z,67.90
2019-05-25T04:21:08.514Z,67.90
2019-05-25T04:21:39.689Z,68.00
2019-05-25T04:22:11.133Z,68.00
2019-05-25T04:22:42.308Z,68.00
2019-05-25T04:23:13.485Z,68.00
2019-05-25T04:23:44.931Z,68.00
2019-05-25T04:24:16.194Z,68.00
2019-05-25T04:24:47.465Z,68.00
2019-05-25T04:25:18.895Z,68.00
2019-05-25T04:25:50.150Z,68.00
2019-05-25T04:26:22.915Z,68.00
2019-05-25T04:26:54.332Z,67.90
2019-05-25T04:27:25.525Z,67.90
2019-05-25T04:27:57.211Z,67.80
2019-05-25T04:28:28.403Z,67.80
2019-05-25T04:28:59.593Z,67.80
2019-05-25T04:29:31.083Z,67.80
2019-05-25T04:30:02.580Z,67.80
2019-05-25T04:30:33.767Z,67.80
2019-05-25T04:31:05.008Z,67.80
2019-05-25T04:31:36.240Z,67.80
2019-05-25T04:32:07.430Z,67.80
2019-05-25T04:32:38.642Z,67.80
2019-05-25T04:33:09.881Z,67.80
2019-05-25T04:33:41.072Z,67.70
2019-05-25T04:34:12.249Z,67.80
2019-05-25T04:34:43.440Z,67.70
2019-05-25T04:35:14.611Z,67.80
2019-05-25T04:35:45.816Z,67.70
2019-05-25T04:36:17.336Z,67.70
2019-05-25T04:36:48.522Z,67.70
2019-05-25T04:37:19.701Z,67.70
2019-05-25T04:37:50.889Z,67.70
2019-05-25T04:38:22.098Z,67.70
2019-05-25T04:38:53.296Z,67.70
2019-05-25T04:39:24.504Z,67.70
2019-05-25T04:39:56.008Z,67.60
2019-05-25T04:40:27.186Z,67.60
2019-05-25T04:40:58.388Z,67.60
2019-05-25T04:41:29.866Z,67.50
2019-05-25T04:42:01.067Z,67.50
2019-05-25T04:42:32.268Z,67.50
2019-05-25T04:43:03.458Z,67.50
2019-05-25T04:43:34.632Z,67.50
2019-05-25T04:44:05.808Z,67.40
2019-05-25T04:44:36.985Z,67.40
2019-05-25T04:45:08.211Z,67.30
2019-05-25T04:45:39.657Z,67.40
2019-05-25T04:46:10.915Z,67.40
2019-05-25T04:46:42.342Z,67.30
2019-05-25T04:47:26.151Z,67.30
2019-05-25T04:47:46.427Z,67.40
2019-05-25T04:48:17.890Z,67.40
2019-05-25T04:48:49.071Z,68.20
2019-05-25T04:49:20.311Z,67.40
2019-05-25T04:49:51.751Z,67.40
2019-05-25T04:50:23.221Z,67.40
2019-05-25T04:50:54.396Z,67.40
2019-05-25T04:51:25.584Z,67.40
2019-05-25T04:51:56.829Z,67.40
2019-05-25T04:52:28.017Z,67.40
2019-05-25T04:52:59.227Z,67.40
2019-05-25T04:53:30.658Z,67.40
2019-05-25T04:54:01.845Z,67.40
2019-05-25T04:54:33.022Z,67.40
2019-05-25T04:55:04.204Z,67.40
2019-05-25T04:55:35.369Z,67.40
2019-05-25T04:56:06.541Z,67.40
2019-05-25T04:56:39.840Z,67.40
2019-05-25T04:57:10.704Z,67.40
2019-05-25T04:57:42.264Z,67.40
2019-05-25T04:58:13.461Z,67.50
2019-05-25T04:58:44.658Z,67.40
2019-05-25T04:59:15.841Z,67.40
2019-05-25T04:59:47.273Z,67.40
2019-05-25T05:00:18.457Z,67.40
2019-05-25T05:00:49.628Z,67.40
2019-05-25T05:01:22.548Z,67.40
2019-05-25T05:01:54.239Z,67.40
2019-05-25T05:02:25.413Z,67.40
2019-05-25T05:02:56.694Z,67.40
2019-05-25T05:03:27.883Z,67.40
2019-05-25T05:03:59.091Z,67.40
2019-05-25T05:04:30.402Z,67.40
2019-05-25T05:05:01.694Z,67.50
2019-05-25T05:05:32.923Z,67.40
2019-05-25T05:06:04.401Z,67.40
2019-05-25T05:06:35.660Z,67.40
2019-05-25T05:07:06.910Z,67.40
2019-05-25T05:07:38.098Z,67.40
2019-05-25T05:08:09.276Z,67.40
2019-05-25T05:08:40.443Z,67.40
2019-05-25T05:09:11.631Z,67.40
2019-05-25T05:09:42.805Z,67.40
2019-05-25T05:10:13.970Z,67.30
2019-05-25T05:10:45.160Z,67.40
2019-05-25T05:11:16.344Z,67.40
2019-05-25T05:11:47.556Z,67.40
2019-05-25T05:12:19.016Z,67.40
2019-05-25T05:12:50.197Z,67.40
2019-05-25T05:13:21.426Z,67.30
2019-05-25T05:13:52.659Z,67.30
2019-05-25T05:14:23.843Z,67.30
2019-05-25T05:14:56.549Z,67.40
2019-05-25T05:15:27.940Z,67.30
2019-05-25T05:15:59.123Z,67.20
2019-05-25T05:16:30.329Z,67.20
2019-05-25T05:17:01.584Z,67.30
2019-05-25T05:17:32.766Z,67.20
2019-05-25T05:18:03.957Z,67.30
2019-05-25T05:18:35.397Z,67.30
2019-05-25T05:19:06.589Z,67.20
2019-05-25T05:19:37.769Z,67.20
2019-05-25T05:20:08.947Z,67.20
2019-05-25T05:20:40.145Z,67.20
2019-05-25T05:21:11.323Z,67.20
2019-05-25T05:21:42.786Z,67.20
2019-05-25T05:22:14.314Z,67.20
2019-05-25T05:22:45.757Z,67.20
2019-05-25T05:23:16.946Z,67.30
2019-05-25T05:23:48.119Z,67.20
2019-05-25T05:24:19.346Z,67.20
2019-05-25T05:24:50.604Z,67.20
2019-05-25T05:25:21.775Z,67.20
2019-05-25T05:25:52.966Z,67.20
2019-05-25T05:26:24.424Z,67.20
2019-05-25T05:26:56.461Z,67.20
2019-05-25T05:27:27.892Z,67.20
2019-05-25T05:27:59.968Z,67.20
2019-05-25T05:28:31.159Z,67.20
2019-05-25T05:29:02.627Z,67.20
2019-05-25T05:29:33.808Z,67.30
2019-05-25T05:30:04.975Z,67.20
2019-05-25T05:30:36.155Z,67.20
2019-05-25T05:31:21.016Z,67.20
2019-05-25T05:31:40.230Z,67.20
2019-05-25T05:32:26.347Z,67.20
2019-05-25T05:32:44.331Z,67.20
2019-05-25T05:33:15.526Z,67.20
2019-05-25T05:33:47.039Z,67.20
2019-05-25T05:34:18.218Z,67.30
2019-05-25T05:34:49.466Z,67.20
2019-05-25T05:35:20.694Z,67.30
2019-05-25T05:35:51.922Z,67.30
2019-05-25T05:36:23.404Z,67.30
2019-05-25T05:36:54.594Z,67.30
2019-05-25T05:37:25.796Z,67.30
2019-05-25T05:37:56.964Z,67.30
2019-05-25T05:38:28.144Z,67.30
2019-05-25T05:38:59.327Z,67.30
2019-05-25T05:39:30.832Z,67.30
2019-05-25T05:40:02.042Z,67.30
2019-05-25T05:40:33.244Z,67.20
2019-05-25T05:41:04.490Z,67.20
2019-05-25T05:41:36.029Z,67.20
2019-05-25T05:42:07.222Z,67.20
2019-05-25T05:42:38.408Z,67.20
2019-05-25T05:43:09.586Z,67.20
2019-05-25T05:43:41.056Z,67.20
2019-05-25T05:44:12.242Z,67.20
2019-05-25T05:44:43.439Z,67.20
2019-05-25T05:45:14.877Z,67.20
2019-05-25T05:45:46.062Z,67.20
2019-05-25T05:46:17.252Z,67.20
2019-05-25T05:46:48.682Z,67.20
2019-05-25T05:47:19.958Z,67.20
2019-05-25T05:47:51.390Z,67.10
2019-05-25T05:48:22.820Z,67.10
2019-05-25T05:48:54.023Z,67.10
2019-05-25T05:49:25.465Z,67.10
2019-05-25T05:49:56.919Z,67.10
2019-05-25T05:50:28.119Z,67.10
2019-05-25T05:50:59.291Z,67.10
2019-05-25T05:51:30.467Z,67.10
2019-05-25T05:52:01.658Z,67.10
2019-05-25T05:52:32.827Z,67.10
2019-05-25T05:53:04.000Z,67.10
2019-05-25T05:53:35.180Z,67.10
2019-05-25T05:54:06.367Z,67.10
2019-05-25T05:54:37.565Z,67.20
2019-05-25T05:55:08.748Z,67.10
2019-05-25T05:55:39.948Z,67.10
2019-05-25T05:56:11.421Z,67.10
2019-05-25T05:56:42.869Z,67.20
2019-05-25T05:57:14.056Z,67.10
2019-05-25T05:57:45.268Z,67.10
2019-05-25T05:58:16.448Z,67.10
2019-05-25T05:58:47.627Z,67.00
2019-05-25T05:59:18.804Z,67.00
2019-05-25T05:59:49.986Z,67.00
2019-05-25T06:00:21.185Z,67.00
2019-05-25T06:00:52.442Z,67.00
2019-05-25T06:01:23.674Z,67.00
2019-05-25T06:01:54.849Z,67.00
2019-05-25T06:02:26.289Z,67.00
2019-05-25T06:02:57.467Z,67.00
2019-05-25T06:03:28.693Z,67.00
2019-05-25T06:03:59.923Z,66.90
2019-05-25T06:04:31.117Z,67.00
2019-05-25T06:05:03.044Z,66.90
2019-05-25T06:05:34.509Z,66.90
2019-05-25T06:06:05.737Z,66.90
2019-05-25T06:06:36.990Z,66.90
2019-05-25T06:07:08.183Z,67.00
2019-05-25T06:07:39.363Z,67.00
2019-05-25T06:08:10.532Z,67.00
2019-05-25T06:08:41.738Z,67.00
2019-05-25T06:09:12.917Z,67.00
2019-05-25T06:09:44.180Z,67.00
2019-05-25T06:10:15.351Z,67.00
2019-05-25T06:10:46.532Z,67.00
2019-05-25T06:11:17.721Z,67.00
2019-05-25T06:11:49.179Z,67.00
2019-05-25T06:12:20.376Z,67.00
2019-05-25T06:12:51.836Z,67.00
2019-05-25T06:13:23.043Z,67.00
2019-05-25T06:13:54.531Z,67.00
2019-05-25T06:14:26.060Z,67.00
2019-05-25T06:14:57.291Z,67.00
2019-05-25T06:15:28.466Z,67.00
2019-05-25T06:15:59.666Z,67.00
2019-05-25T06:16:31.173Z,67.00
2019-05-25T06:17:02.352Z,67.00
2019-05-25T06:17:33.541Z,67.00
2019-05-25T06:18:04.809Z,67.00
2019-05-25T06:18:35.981Z,67.00
2019-05-25T06:19:07.454Z,67.00
2019-05-25T06:19:38.685Z,67.00
2019-05-25T06:20:09.865Z,67.00
2019-05-25T06:20:41.302Z,67.00
2019-05-25T06:21:12.496Z,67.00
2019-05-25T06:21:44.020Z,67.00
2019-05-25T06:22:15.237Z,67.00
2019-05-25T06:22:46.708Z,67.00
2019-05-25T06:23:18.162Z,67.00
2019-05-25T06:23:49.409Z,66.90
2019-05-25T06:24:20.590Z,67.00
2019-05-25T06:24:52.051Z,66.90
2019-05-25T06:25:23.263Z,67.00
2019-05-25T06:25:54.508Z,67.00
2019-05-25T06:26:25.691Z,66.90
2019-05-25T06:26:56.867Z,67.00
2019-05-25T06:27:28.198Z,67.00
2019-05-25T06:27:59.590Z,67.00
2019-05-25T06:28:30.795Z,67.00
2019-05-25T06:29:02.023Z,67.00
2019-05-25T06:29:33.223Z,67.00
2019-05-25T06:30:04.463Z,67.00
2019-05-25T06:30:35.637Z,67.00
2019-05-25T06:31:06.811Z,66.90
2019-05-25T06:31:38.263Z,66.90
2019-05-25T06:32:09.483Z,67.00
2019-05-25T06:32:40.661Z,66.90
2019-05-25T06:33:11.946Z,66.90
2019-05-25T06:33:43.193Z,66.90
2019-05-25T06:34:14.412Z,66.90
2019-05-25T06:34:45.584Z,66.90
2019-05-25T06:35:17.063Z,67.00
2019-05-25T06:35:48.243Z,66.90
2019-05-25T06:36:19.421Z,66.90
2019-05-25T06:36:50.603Z,66.90
2019-05-25T06:37:22.066Z,66.80
2019-05-25T06:37:53.267Z,66.80
2019-05-25T06:38:24.522Z,66.90
2019-05-25T06:38:55.764Z,66.90
2019-05-25T06:39:26.962Z,66.90
2019-05-25T06:39:58.242Z,66.90
2019-05-25T06:40:29.427Z,66.80
2019-05-25T06:41:00.704Z,66.80
2019-05-25T06:41:32.200Z,66.80
2019-05-25T06:42:03.446Z,66.80
2019-05-25T06:42:34.674Z,66.80
2019-05-25T06:43:06.116Z,66.80
2019-05-25T06:43:37.302Z,66.80